createdAt,value
2023-05-14T00:01:20.582Z,10.80
2023-05-14T00:03:49.947Z,12.02
2023-05-14T00:06:16.762Z,11.32
2023-05-14T00:08:43.543Z,11.13
2023-05-14T00:11:10.440Z,10.23
2023-05-14T00:13:37.253Z,9.50
2023-05-14T00:16:04.338Z,9.68
2023-05-14T00:18:31.310Z,11.18
2023-05-14T00:20:58.205Z,14.45
2023-05-14T00:23:25.146Z,10.27
2023-05-14T00:25:51.942Z,9.65
2023-05-14T00:28:18.781Z,12.07
2023-05-14T00:30:45.757Z,16.00
2023-05-14T00:33:12.575Z,11.15
2023-05-14T00:35:39.463Z,11.18
2023-05-14T00:38:06.365Z,15.02
2023-05-14T00:40:33.305Z,11.80
2023-05-14T00:43:00.136Z,13.05
2023-05-14T00:45:27.396Z,14.40
2023-05-14T00:47:54.708Z,11.90
2023-05-14T00:50:22.314Z,14.27
2023-05-14T00:52:49.731Z,12.55
2023-05-14T00:55:16.931Z,12.60
2023-05-14T00:57:44.100Z,13.25
2023-05-14T01:00:11.462Z,12.30
2023-05-14T01:02:38.398Z,9.85
2023-05-14T01:05:05.963Z,12.85
2023-05-14T01:08:02.004Z,12.55
2023-05-14T01:10:45.893Z,11.07
2023-05-14T01:15:49.927Z,11.98
2023-05-14T01:18:19.423Z,14.07
2023-05-14T01:20:51.526Z,7.72
2023-05-14T01:23:18.449Z,12.80
2023-05-14T01:25:45.384Z,12.00
2023-05-14T01:28:23.553Z,12.20
2023-05-14T01:30:58.629Z,10.68
2023-05-14T01:33:29.383Z,12.20
2023-05-14T01:35:56.729Z,9.23
2023-05-14T01:38:24.276Z,10.13
2023-05-14T01:40:51.970Z,11.15
2023-05-14T01:43:19.567Z,10.48
2023-05-14T01:45:46.660Z,11.80
2023-05-14T01:48:15.225Z,10.02
2023-05-14T01:50:42.125Z,10.45
2023-05-14T01:53:08.976Z,11.07
2023-05-14T01:55:35.852Z,14.65
2023-05-14T01:58:02.739Z,10.93
2023-05-14T02:00:30.534Z,9.93
2023-05-14T02:02:57.395Z,10.60
2023-05-14T02:05:24.383Z,9.57
2023-05-14T02:07:51.337Z,11.25
2023-05-14T02:10:18.324Z,12.50
2023-05-14T02:12:45.202Z,9.20
2023-05-14T02:15:13.332Z,9.20
2023-05-14T02:17:41.292Z,12.23
2023-05-14T02:20:10.109Z,10.98
2023-05-14T02:22:37.291Z,9.25
2023-05-14T02:25:05.206Z,13.95
2023-05-14T02:27:32.141Z,10.18
2023-05-14T02:30:00.850Z,9.55
2023-05-14T02:32:28.454Z,13.77
2023-05-14T02:34:55.412Z,9.38
2023-05-14T02:37:22.217Z,15.57
2023-05-14T02:39:49.409Z,13.40
2023-05-14T02:42:17.440Z,13.05
2023-05-14T02:44:44.219Z,13.05
2023-05-14T02:47:11.090Z,10.90
2023-05-14T02:49:38.119Z,13.02
2023-05-14T02:52:05.489Z,13.27
2023-05-14T02:54:32.451Z,11.93
2023-05-14T02:56:59.244Z,11.85
2023-05-14T02:59:26.778Z,10.18
2023-05-14T03:01:54.107Z,11.07
2023-05-14T03:04:21.493Z,9.95
2023-05-14T03:06:48.286Z,15.63
2023-05-14T03:09:15.205Z,15.38
2023-05-14T03:11:42.103Z,9.98
2023-05-14T03:14:08.937Z,11.68
2023-05-14T03:16:35.828Z,12.95
2023-05-14T03:19:02.808Z,13.43
2023-05-14T03:21:29.651Z,11.02
2023-05-14T03:23:56.617Z,13.52
2023-05-14T03:26:23.421Z,10.88
2023-05-14T03:28:50.685Z,10.73
2023-05-14T03:31:17.533Z,9.98
2023-05-14T03:33:44.592Z,12.93
2023-05-14T03:36:11.396Z,12.60
2023-05-14T03:38:38.213Z,11.75
2023-05-14T03:41:05.161Z,12.10
2023-05-14T03:43:31.977Z,14.60
2023-05-14T03:45:58.772Z,10.82
2023-05-14T03:48:25.718Z,9.23
2023-05-14T03:50:52.708Z,10.77
2023-05-14T03:53:19.614Z,9.35
2023-05-14T03:55:46.403Z,13.18
2023-05-14T03:58:14.457Z,10.20
2023-05-14T04:00:44.348Z,9.75
2023-05-14T04:03:11.790Z,14.82
2023-05-14T04:05:38.811Z,12.15
2023-05-14T04:08:05.873Z,14.32
2023-05-14T04:10:32.854Z,19.48
2023-05-14T04:12:59.690Z,14.38
2023-05-14T04:15:26.946Z,14.80
2023-05-14T04:17:53.744Z,14.13
2023-05-14T04:20:20.584Z,14.95
2023-05-14T04:22:47.429Z,13.80
2023-05-14T04:25:14.323Z,18.38
2023-05-14T04:27:41.196Z,15.63
2023-05-14T04:30:08.769Z,15.73
2023-05-14T04:32:35.682Z,13.73
2023-05-14T04:35:02.936Z,13.52
2023-05-14T04:37:30.911Z,18.80
2023-05-14T04:39:57.705Z,13.13
2023-05-14T04:42:25.527Z,13.95
2023-05-14T04:44:52.480Z,13.38
2023-05-14T04:47:21.064Z,12.15
2023-05-14T04:49:48.073Z,17.08
2023-05-14T04:52:15.041Z,11.82
2023-05-14T04:54:41.906Z,14.10
2023-05-14T04:57:08.732Z,13.43
2023-05-14T04:59:35.552Z,17.35
2023-05-14T05:02:02.378Z,14.60
2023-05-14T05:04:29.378Z,16.35
2023-05-14T05:06:56.176Z,16.40
2023-05-14T05:09:22.992Z,16.33
2023-05-14T05:11:49.784Z,18.85
2023-05-14T05:14:16.585Z,20.50
2023-05-14T05:16:43.562Z,18.00
2023-05-14T05:19:10.519Z,21.48
2023-05-14T05:21:40.711Z,18.40
2023-05-14T05:24:08.439Z,19.10
2023-05-14T05:26:36.889Z,19.25
2023-05-14T05:29:04.803Z,21.65
2023-05-14T05:31:32.235Z,20.40
2023-05-14T05:33:59.828Z,17.60
2023-05-14T05:36:26.715Z,18.83
2023-05-14T05:38:53.607Z,18.42
2023-05-14T05:41:20.510Z,17.73
2023-05-14T05:43:47.326Z,16.98
2023-05-14T05:46:14.215Z,17.33
2023-05-14T05:48:41.072Z,15.77
2023-05-14T05:51:07.994Z,15.48
2023-05-14T05:53:34.801Z,17.88
2023-05-14T05:56:01.645Z,15.90
2023-05-14T05:58:29.675Z,18.15
2023-05-14T06:00:57.679Z,16.23
2023-05-14T06:03:24.728Z,20.77
2023-05-14T06:05:52.653Z,15.90
2023-05-14T06:08:19.570Z,16.90
2023-05-14T06:10:47.675Z,15.05
2023-05-14T06:13:14.655Z,14.45
2023-05-14T06:15:41.475Z,12.98
2023-05-14T06:18:08.445Z,14.13
2023-05-14T06:20:35.371Z,12.02
2023-05-14T06:23:02.161Z,14.00
2023-05-14T06:25:29.329Z,12.30
2023-05-14T06:27:56.169Z,14.20
2023-05-14T06:30:23.471Z,12.07
2023-05-14T06:32:50.539Z,11.90
2023-05-14T06:35:18.985Z,10.43
2023-05-14T06:37:45.926Z,11.25
2023-05-14T06:40:15.654Z,9.05
2023-05-14T06:42:42.517Z,10.05
2023-05-14T06:45:09.684Z,10.60
2023-05-14T06:47:36.629Z,9.52
2023-05-14T06:50:03.721Z,8.50
2023-05-14T06:52:30.829Z,10.93
2023-05-14T06:54:57.657Z,10.68
2023-05-14T06:57:24.673Z,9.65
2023-05-14T06:59:51.500Z,8.65
2023-05-14T07:02:18.294Z,9.20
2023-05-14T07:04:45.334Z,11.07
2023-05-14T07:07:15.368Z,9.68
2023-05-14T07:09:42.727Z,8.88
2023-05-14T07:12:09.646Z,9.73
2023-05-14T07:14:36.420Z,9.20
2023-05-14T07:17:03.394Z,8.38
2023-05-14T07:19:30.306Z,8.20
2023-05-14T07:21:57.916Z,7.22
2023-05-14T07:24:24.749Z,8.13
2023-05-14T07:26:51.575Z,8.05
2023-05-14T07:29:18.640Z,8.43
2023-05-14T07:31:45.503Z,9.60
2023-05-14T07:34:12.795Z,8.80
2023-05-14T07:36:39.829Z,8.57
2023-05-14T07:39:06.755Z,7.72
2023-05-14T07:41:33.635Z,7.45
2023-05-14T07:44:00.548Z,8.00
2023-05-14T07:46:27.404Z,6.88
2023-05-14T07:48:54.226Z,7.28
2023-05-14T07:51:21.097Z,8.15
2023-05-14T07:53:47.899Z,8.02
2023-05-14T07:56:14.737Z,7.55
2023-05-14T07:58:41.617Z,7.45
2023-05-14T08:01:09.205Z,6.15
2023-05-14T08:03:36.249Z,7.20
2023-05-14T08:06:04.334Z,5.95
2023-05-14T08:08:31.150Z,6.15
2023-05-14T08:10:58.111Z,4.95
2023-05-14T08:13:24.970Z,6.88
2023-05-14T08:15:52.310Z,5.38
2023-05-14T08:18:19.340Z,4.97
2023-05-14T08:20:46.139Z,5.47
2023-05-14T08:23:13.045Z,6.45
2023-05-14T08:25:39.995Z,6.70
2023-05-14T08:28:07.727Z,6.13
2023-05-14T08:30:34.665Z,5.85
2023-05-14T08:33:01.597Z,6.30
2023-05-14T08:35:28.730Z,5.00
2023-05-14T08:37:56.928Z,5.60
2023-05-14T08:40:24.086Z,7.10
2023-05-14T08:42:51.632Z,5.15
2023-05-14T08:45:20.347Z,4.65
2023-05-14T08:47:50.357Z,5.20
2023-05-14T08:50:19.877Z,5.15
2023-05-14T08:52:48.470Z,5.07
2023-05-14T08:55:15.514Z,6.25
2023-05-14T08:57:42.416Z,4.68
2023-05-14T09:00:13.077Z,4.80
2023-05-14T09:02:43.095Z,6.07
2023-05-14T09:05:10.380Z,4.97
2023-05-14T09:07:37.169Z,5.30
2023-05-14T09:10:04.725Z,5.45
2023-05-14T09:12:31.718Z,7.13
2023-05-14T09:14:58.543Z,6.15
2023-05-14T09:17:27.401Z,4.90
2023-05-14T09:19:54.522Z,5.05
2023-05-14T09:22:21.695Z,4.63
2023-05-14T09:25:03.470Z,6.20
2023-05-14T09:27:31.983Z,6.32
2023-05-14T09:30:12.389Z,5.07
2023-05-14T09:32:44.065Z,4.40
2023-05-14T09:35:17.962Z,4.85
2023-05-14T09:37:46.948Z,5.18
2023-05-14T09:40:14.517Z,5.20
2023-05-14T09:42:41.599Z,5.38
2023-05-14T09:45:10.180Z,5.68
2023-05-14T09:47:38.206Z,4.43
2023-05-14T09:50:06.605Z,5.70
2023-05-14T09:52:33.768Z,4.53
2023-05-14T09:55:01.263Z,8.30
2023-05-14T09:57:29.035Z,4.53
2023-05-14T09:59:55.883Z,4.78
2023-05-14T10:02:25.386Z,4.75
2023-05-14T10:05:00.815Z,5.05
2023-05-14T10:07:41.644Z,6.05
2023-05-14T10:10:13.591Z,6.00
2023-05-14T10:12:40.807Z,6.10
2023-05-14T10:15:20.048Z,5.78
2023-05-14T10:17:54.793Z,5.05
2023-05-14T10:20:23.250Z,6.78
2023-05-14T10:22:51.110Z,7.95
2023-05-14T10:25:18.424Z,6.57
2023-05-14T10:27:45.564Z,5.60
2023-05-14T10:30:13.009Z,6.25
2023-05-14T10:32:41.851Z,5.28
2023-05-14T10:35:20.775Z,4.93
2023-05-14T10:37:51.151Z,4.90
2023-05-14T10:40:19.258Z,6.20
2023-05-14T10:42:46.922Z,5.22
2023-05-14T10:45:15.640Z,4.65
2023-05-14T10:47:44.428Z,5.13
2023-05-14T10:50:14.099Z,6.10
2023-05-14T10:52:43.476Z,6.95
2023-05-14T10:55:14.015Z,5.72
2023-05-14T10:57:43.638Z,5.28
2023-05-14T11:00:12.529Z,6.25
2023-05-14T11:02:44.298Z,6.15
2023-05-14T11:05:14.372Z,5.78
2023-05-14T11:07:49.210Z,8.63
2023-05-14T11:10:21.847Z,7.35
2023-05-14T11:12:53.529Z,6.07
2023-05-14T11:15:25.047Z,5.93
2023-05-14T11:17:53.258Z,6.40
2023-05-14T11:20:20.716Z,6.30
2023-05-14T11:22:49.269Z,7.60
2023-05-14T11:25:16.977Z,5.82
2023-05-14T11:27:45.429Z,5.57
2023-05-14T11:30:19.860Z,5.95
2023-05-14T11:32:48.137Z,6.07
2023-05-14T11:35:15.682Z,5.80
2023-05-14T11:37:43.158Z,5.60
2023-05-14T11:40:16.306Z,5.82
2023-05-14T11:42:43.232Z,6.97
2023-05-14T11:45:14.415Z,6.28
2023-05-14T11:47:41.878Z,6.60
2023-05-14T11:50:09.801Z,6.63
2023-05-14T11:52:41.144Z,5.95
2023-05-14T11:55:12.426Z,6.82
2023-05-14T11:57:39.366Z,5.40
2023-05-14T12:00:21.332Z,7.03
2023-05-14T12:02:49.845Z,6.10
2023-05-14T12:05:18.582Z,5.97
2023-05-14T12:07:46.230Z,6.78
2023-05-14T12:10:13.836Z,5.95
2023-05-14T12:12:40.744Z,7.00
2023-05-14T12:15:12.665Z,5.60
2023-05-14T12:17:39.825Z,5.90
2023-05-14T12:20:10.979Z,7.63
2023-05-14T12:22:38.127Z,6.13
2023-05-14T12:25:10.284Z,5.70
2023-05-14T12:27:37.866Z,5.65
2023-05-14T12:30:27.353Z,5.95
2023-05-14T12:32:53.607Z,6.68
2023-05-14T12:35:21.557Z,6.88
2023-05-14T12:37:48.460Z,6.40
2023-05-14T12:40:15.299Z,5.25
2023-05-14T12:42:42.181Z,5.32
2023-05-14T12:45:09.333Z,7.03
2023-05-14T12:47:36.951Z,5.57
2023-05-14T12:50:04.434Z,6.07
2023-05-14T12:55:01.497Z,6.10
2023-05-14T12:57:30.203Z,5.43
2023-05-14T12:59:57.533Z,6.93
2023-05-14T13:02:24.328Z,6.03
2023-05-14T13:04:51.115Z,4.93
2023-05-14T13:07:17.923Z,6.32
2023-05-14T13:09:44.696Z,6.07
2023-05-14T13:12:11.565Z,7.47
2023-05-14T13:14:38.370Z,5.53
2023-05-14T13:17:07.028Z,5.97
2023-05-14T13:19:33.852Z,5.70
2023-05-14T13:22:00.748Z,5.95
2023-05-14T13:24:27.626Z,5.93
2023-05-14T13:26:54.416Z,7.40
2023-05-14T13:29:21.204Z,6.68
2023-05-14T13:31:48.039Z,5.60
2023-05-14T13:34:16.030Z,5.38
2023-05-14T13:36:43.579Z,5.95
2023-05-14T13:39:13.595Z,6.03
2023-05-14T13:41:41.400Z,7.28
2023-05-14T13:44:08.270Z,8.18
2023-05-14T13:46:35.186Z,6.35
2023-05-14T13:49:02.059Z,6.55
2023-05-14T13:51:29.327Z,4.75
2023-05-14T13:53:56.400Z,6.65
2023-05-14T13:56:23.547Z,9.05
2023-05-14T13:58:50.699Z,6.47
2023-05-14T14:01:17.830Z,6.88
2023-05-14T14:03:44.692Z,7.25
2023-05-14T14:06:12.010Z,6.43
2023-05-14T14:08:38.851Z,7.47
2023-05-14T14:11:06.247Z,7.55
2023-05-14T14:13:33.205Z,6.60
2023-05-14T14:16:00.109Z,6.38
2023-05-14T14:18:27.201Z,7.68
2023-05-14T14:20:54.097Z,7.90
2023-05-14T14:23:21.670Z,6.55
2023-05-14T14:25:48.523Z,7.32
2023-05-14T14:28:15.355Z,6.53
2023-05-14T14:30:43.641Z,7.85
2023-05-14T14:33:11.178Z,6.10
2023-05-14T14:35:38.232Z,9.95
2023-05-14T14:38:05.081Z,9.07
2023-05-14T14:40:33.642Z,9.88
2023-05-14T14:43:00.521Z,7.47
2023-05-14T14:45:27.386Z,7.07
2023-05-14T14:48:31.476Z,8.27
2023-05-14T14:50:58.729Z,6.80
2023-05-14T14:53:25.820Z,9.68
2023-05-14T14:55:53.006Z,7.13
2023-05-14T14:58:21.063Z,6.88
2023-05-14T15:00:51.162Z,6.05
2023-05-14T15:03:18.991Z,6.10
2023-05-14T15:05:46.034Z,7.55
2023-05-14T15:08:13.440Z,5.75
2023-05-14T15:10:41.206Z,7.93
2023-05-14T15:13:08.735Z,5.43
2023-05-14T15:15:36.043Z,5.85
2023-05-14T15:18:04.312Z,6.18
2023-05-14T15:20:31.230Z,6.45
2023-05-14T15:22:58.007Z,7.53
2023-05-14T15:25:25.375Z,5.90
2023-05-14T15:27:52.402Z,6.90
2023-05-14T15:30:19.577Z,7.55
2023-05-14T15:32:46.701Z,5.20
2023-05-14T15:35:13.876Z,6.57
2023-05-14T15:37:42.633Z,6.88
2023-05-14T15:40:13.392Z,5.68
2023-05-14T15:42:42.275Z,5.32
2023-05-14T15:45:10.566Z,5.72
2023-05-14T15:47:37.558Z,4.82
2023-05-14T15:50:05.333Z,4.82
2023-05-14T15:52:32.560Z,5.03
2023-05-14T15:54:59.617Z,5.13
2023-05-14T15:57:27.549Z,5.15
2023-05-14T15:59:54.501Z,5.82
2023-05-14T16:02:21.366Z,5.13
2023-05-14T16:04:49.546Z,6.50
2023-05-14T16:07:16.699Z,4.63
2023-05-14T16:09:43.506Z,5.70
2023-05-14T16:12:10.562Z,5.65
2023-05-14T16:14:38.583Z,4.93
2023-05-14T16:17:06.352Z,5.22
2023-05-14T16:19:33.244Z,5.05
2023-05-14T16:22:00.701Z,5.53
2023-05-14T16:24:27.528Z,5.97
2023-05-14T16:26:54.364Z,6.15
2023-05-14T16:29:21.644Z,5.20
2023-05-14T16:31:48.566Z,5.00
2023-05-14T16:34:16.080Z,5.47
2023-05-14T16:36:43.953Z,4.13
2023-05-14T16:39:11.471Z,6.68
2023-05-14T16:41:38.305Z,4.55
2023-05-14T16:44:05.170Z,5.57
2023-05-14T16:46:32.391Z,4.80
2023-05-14T16:48:59.394Z,5.25
2023-05-14T16:51:26.235Z,4.43
2023-05-14T16:53:55.446Z,4.90
2023-05-14T16:56:22.759Z,4.40
2023-05-14T16:58:50.013Z,4.00
2023-05-14T17:01:16.928Z,3.83
2023-05-14T17:03:45.543Z,3.42
2023-05-14T17:06:12.411Z,3.40
2023-05-14T17:08:39.231Z,3.85
2023-05-14T17:11:06.182Z,3.83
2023-05-14T17:13:33.479Z,4.75
2023-05-14T17:16:00.938Z,3.83
2023-05-14T17:18:28.398Z,4.30
2023-05-14T17:20:55.541Z,6.30
2023-05-14T17:23:22.430Z,3.63
2023-05-14T17:25:49.500Z,4.20
2023-05-14T17:28:17.201Z,2.92
2023-05-14T17:30:44.101Z,3.17
2023-05-14T17:33:11.495Z,3.65
2023-05-14T17:35:38.491Z,3.72
2023-05-14T17:38:05.478Z,4.15
2023-05-14T17:40:33.098Z,3.33
2023-05-14T17:43:00.146Z,3.70
2023-05-14T17:45:27.864Z,5.90
2023-05-14T17:47:56.363Z,3.30
2023-05-14T17:50:23.187Z,4.70
2023-05-14T17:52:49.955Z,3.72
2023-05-14T17:55:17.503Z,3.63
2023-05-14T17:57:44.483Z,3.58
2023-05-14T18:00:11.948Z,4.18
2023-05-14T18:02:39.306Z,3.80
2023-05-14T18:05:06.869Z,3.72
2023-05-14T18:07:34.878Z,3.50
2023-05-14T18:10:02.696Z,3.78
2023-05-14T18:12:29.822Z,2.97
2023-05-14T18:14:56.653Z,3.25
2023-05-14T18:17:23.576Z,3.42
2023-05-14T18:19:50.532Z,3.40
2023-05-14T18:22:17.540Z,1.90
2023-05-14T18:24:45.267Z,3.28
2023-05-14T18:27:12.390Z,2.80
2023-05-14T18:29:39.187Z,2.88
2023-05-14T18:32:06.400Z,2.60
2023-05-14T18:34:33.266Z,2.63
2023-05-14T18:37:00.269Z,2.33
2023-05-14T18:39:27.044Z,4.05
2023-05-14T18:41:56.504Z,2.08
2023-05-14T18:44:23.650Z,2.63
2023-05-14T18:46:50.785Z,4.30
2023-05-14T18:49:17.702Z,3.00
2023-05-14T18:51:44.620Z,5.38
2023-05-14T18:54:11.457Z,4.05
2023-05-14T18:56:39.995Z,2.05
2023-05-14T18:59:07.556Z,2.72
2023-05-14T19:01:34.419Z,2.58
2023-05-14T19:04:03.769Z,3.28
2023-05-14T19:06:32.683Z,3.60
2023-05-14T19:09:00.791Z,2.95
2023-05-14T19:11:29.629Z,2.35
2023-05-14T19:13:56.424Z,3.72
2023-05-14T19:16:23.270Z,4.80
2023-05-14T19:18:50.473Z,5.50
2023-05-14T19:21:17.338Z,3.70
2023-05-14T19:23:44.216Z,3.75
2023-05-14T19:26:11.160Z,4.32
2023-05-14T19:28:38.789Z,5.28
2023-05-14T19:31:06.093Z,3.05
2023-05-14T19:33:33.058Z,3.15
2023-05-14T19:35:59.882Z,4.85
2023-05-14T19:38:27.200Z,4.47
2023-05-14T19:40:56.816Z,4.63
2023-05-14T19:43:25.444Z,4.43
2023-05-14T19:45:52.524Z,4.00
2023-05-14T19:48:19.656Z,5.93
2023-05-14T19:50:47.326Z,4.38
2023-05-14T19:53:14.457Z,3.85
2023-05-14T19:55:41.744Z,4.32
2023-05-14T19:58:08.764Z,4.43
2023-05-14T20:00:36.876Z,3.92
2023-05-14T20:03:04.352Z,4.72
2023-05-14T20:05:32.011Z,4.55
2023-05-14T20:07:58.797Z,3.83
2023-05-14T20:10:25.958Z,4.60
2023-05-14T20:12:52.930Z,5.88
2023-05-14T20:15:19.798Z,3.08
2023-05-14T20:17:46.684Z,5.30
2023-05-14T20:20:14.040Z,4.95
2023-05-14T20:22:42.586Z,5.82
2023-05-14T20:25:10.107Z,3.58
2023-05-14T20:27:37.239Z,2.92
2023-05-14T20:30:04.608Z,5.00
2023-05-14T20:32:32.558Z,4.88
2023-05-14T20:35:02.698Z,3.45
2023-05-14T20:37:33.781Z,5.82
2023-05-14T20:40:02.260Z,4.03
2023-05-14T20:42:29.970Z,3.83
2023-05-14T20:44:56.798Z,7.03
2023-05-14T20:47:26.672Z,3.30
2023-05-14T20:49:53.647Z,3.50
2023-05-14T20:52:20.459Z,4.65
2023-05-14T20:54:47.291Z,3.20
2023-05-14T20:57:17.709Z,3.97
2023-05-14T20:59:45.255Z,3.45
2023-05-14T21:02:12.388Z,4.65
2023-05-14T21:04:40.026Z,3.53
2023-05-14T21:07:07.273Z,2.95
2023-05-14T21:09:34.196Z,6.20
2023-05-14T21:12:00.962Z,2.97
2023-05-14T21:14:27.785Z,5.68
2023-05-14T21:16:54.656Z,5.15
2023-05-14T21:19:23.269Z,3.35
2023-05-14T21:21:50.385Z,7.88
2023-05-14T21:24:17.272Z,3.38
2023-05-14T21:26:44.083Z,6.15
2023-05-14T21:29:11.295Z,4.85
2023-05-14T21:31:38.193Z,4.57
2023-05-14T21:34:05.055Z,4.60
2023-05-14T21:36:31.980Z,6.05
2023-05-14T21:38:58.788Z,5.05
2023-05-14T21:41:25.725Z,5.20
2023-05-14T21:43:52.496Z,6.35
2023-05-14T21:46:19.420Z,4.85
2023-05-14T21:48:46.268Z,5.32
2023-05-14T21:51:13.146Z,6.53
2023-05-14T21:53:39.924Z,3.75
2023-05-14T21:56:08.070Z,5.60
2023-05-14T21:58:35.528Z,4.97
2023-05-14T22:01:02.401Z,4.35
2023-05-14T22:03:29.331Z,6.15
2023-05-14T22:05:56.212Z,4.55
2023-05-14T22:08:23.767Z,4.82
2023-05-14T22:10:50.668Z,6.18
2023-05-14T22:13:17.439Z,4.82
2023-05-14T22:15:44.479Z,4.57
2023-05-14T22:18:12.743Z,4.30
2023-05-14T22:20:40.039Z,4.35
2023-05-14T22:23:07.140Z,4.60
2023-05-14T22:25:34.300Z,5.97
2023-05-14T22:28:01.123Z,5.15
2023-05-14T22:30:28.001Z,6.15
2023-05-14T22:32:54.902Z,7.05
2023-05-14T22:35:21.780Z,7.88
2023-05-14T22:37:48.591Z,5.60
2023-05-14T22:40:15.524Z,5.93
2023-05-14T22:42:42.380Z,6.15
2023-05-14T22:45:09.644Z,5.13
2023-05-14T22:47:37.231Z,5.28
2023-05-14T22:50:07.315Z,5.82
2023-05-14T22:52:34.215Z,8.65
2023-05-14T22:55:01.129Z,4.80
2023-05-14T22:57:28.036Z,6.07
2023-05-14T22:59:54.850Z,5.30
2023-05-14T23:02:21.679Z,4.30
2023-05-14T23:04:48.839Z,7.22
2023-05-14T23:07:16.017Z,5.53
2023-05-14T23:09:42.834Z,5.70
2023-05-14T23:12:09.771Z,7.55
2023-05-14T23:14:36.542Z,5.80
2023-05-14T23:17:03.403Z,4.80
2023-05-14T23:19:30.272Z,6.78
2023-05-14T23:21:58.226Z,9.77
2023-05-14T23:24:26.146Z,5.25
2023-05-14T23:26:52.988Z,8.18
2023-05-14T23:29:19.835Z,4.10
2023-05-14T23:31:46.684Z,5.65
2023-05-14T23:34:13.540Z,5.07
2023-05-14T23:36:40.500Z,8.50
2023-05-14T23:39:07.676Z,6.00
2023-05-14T23:41:34.465Z,4.78
2023-05-14T23:44:01.275Z,3.80
2023-05-14T23:46:28.272Z,4.55
2023-05-14T23:48:57.044Z,5.05
2023-05-14T23:51:24.564Z,6.40
2023-05-14T23:53:56.198Z,4.90
2023-05-14T23:56:27.365Z,4.80
2023-05-14T23:58:54.587Z,7.80
